sensor_id;sensor_type;location;lat;lon;timestamp;pressure;altitude;pressure_sealevel;temperature;humidity
76022;BME280;64718;52.124;6.226;2023-03-02T00:01:49;102589.69;;;0.00;100.00
76022;BME280;64718;52.124;6.226;2023-03-02T00:04:18;102587.88;;;-0.03;100.00
76022;BME280;64718;52.124;6.226;2023-03-02T00:06:46;102593.63;;;-0.10;100.00
76022;BME280;64718;52.124;6.226;2023-03-02T00:09:15;102583.41;;;-0.10;100.00
76022;BME280;64718;52.124;6.226;2023-03-02T00:11:42;102582.63;;;-0.07;100.00
76022;BME280;64718;52.124;6.226;2023-03-02T00:14:09;102585.97;;;-0.10;100.00
76022;BME280;64718;52.124;6.226;2023-03-02T00:16:36;102580.03;;;-0.09;100.00
76022;BME280;64718;52.124;6.226;2023-03-02T00:19:04;102570.66;;;-0.08;100.00
76022;BME280;64718;52.124;6.226;2023-03-02T00:21:31;102576.78;;;-0.03;100.00
76022;BME280;64718;52.124;6.226;2023-03-02T00:23:57;102574.19;;;-0.05;100.00
76022;BME280;64718;52.124;6.226;2023-03-02T00:26:25;102579.13;;;-0.11;100.00
76022;BME280;64718;52.124;6.226;2023-03-02T00:28:52;102574.66;;;-0.18;100.00
76022;BME280;64718;52.124;6.226;2023-03-02T00:31:18;102572.03;;;-0.19;100.00
76022;BME280;64718;52.124;6.226;2023-03-02T00:33:45;102574.91;;;-0.09;100.00
76022;BME280;64718;52.124;6.226;2023-03-02T00:36:15;102562.69;;;-0.19;100.00
76022;BME280;64718;52.124;6.226;2023-03-02T00:38:42;102579.13;;;-0.11;100.00
76022;BME280;64718;52.124;6.226;2023-03-02T00:41:10;102579.16;;;-0.09;100.00
76022;BME280;64718;52.124;6.226;2023-03-02T00:43:38;102570.84;;;-0.02;100.00
76022;BME280;64718;52.124;6.226;2023-03-02T00:46:10;102568.19;;;-0.05;100.00
76022;BME280;64718;52.124;6.226;2023-03-02T00:48:37;102567.41;;;-0.03;100.00
76022;BME280;64718;52.124;6.226;2023-03-02T00:51:04;102567.41;;;-0.03;100.00
76022;BME280;64718;52.124;6.226;2023-03-02T00:53:31;102572.28;;;-0.12;100.00
76022;BME280;64718;52.124;6.226;2023-03-02T00:55:58;102574.19;;;-0.05;100.00
76022;BME280;64718;52.124;6.226;2023-03-02T00:58:25;102569.72;;;-0.12;100.00
76022;BME280;64718;52.124;6.226;2023-03-02T01:00:54;102557.84;;;-0.10;100.00
76022;BME280;64718;52.124;6.226;2023-03-02T01:03:21;102557.00;;;-0.09;100.00
76022;BME280;64718;52.124;6.226;2023-03-02T01:05:48;102555.97;;;-0.15;100.00
76022;BME280;64718;52.124;6.226;2023-03-02T01:08:19;102564.47;;;-0.16;100.00
76022;BME280;64718;52.124;6.226;2023-03-02T01:10:46;102561.00;;;-0.18;100.00
76022;BME280;64718;52.124;6.226;2023-03-02T01:13:12;102557.47;;;-0.22;100.00
76022;BME280;64718;52.124;6.226;2023-03-02T01:15:39;102555.66;;;-0.26;100.00
76022;BME280;64718;52.124;6.226;2023-03-02T01:18:07;102555.56;;;-0.29;100.00
76022;BME280;64718;52.124;6.226;2023-03-02T01:20:33;102544.75;;;-0.20;100.00
76022;BME280;64718;52.124;6.226;2023-03-02T01:23:00;102551.50;;;-0.22;100.00
76022;BME280;64718;52.124;6.226;2023-03-02T01:25:26;102543.00;;;-0.21;100.00
76022;BME280;64718;52.124;6.226;2023-03-02T01:27:53;102543.97;;;-0.18;100.00
76022;BME280;64718;52.124;6.226;2023-03-02T01:30:20;102539.47;;;-0.26;100.00
76022;BME280;64718;52.124;6.226;2023-03-02T01:32:46;102535.94;;;-0.30;100.00
76022;BME280;64718;52.124;6.226;2023-03-02T01:35:14;102530.66;;;-0.36;100.00
76022;BME280;64718;52.124;6.226;2023-03-02T01:37:41;102533.22;;;-0.36;100.00
76022;BME280;64718;52.124;6.226;2023-03-02T01:40:10;102537.38;;;-0.40;100.00
76022;BME280;64718;52.124;6.226;2023-03-02T01:42:44;102536.38;;;-0.45;100.00
76022;BME280;64718;52.124;6.226;2023-03-02T01:45:49;102543.81;;;-0.52;100.00
76022;BME280;64718;52.124;6.226;2023-03-02T01:48:21;102533.53;;;-0.54;100.00
76022;BME280;64718;52.124;6.226;2023-03-02T01:50:50;102540.94;;;-0.61;100.00
76022;BME280;64718;52.124;6.226;2023-03-02T01:53:17;102534.91;;;-0.64;100.00
76022;BME280;64718;52.124;6.226;2023-03-02T01:55:44;102544.00;;;-0.73;100.00
76022;BME280;64718;52.124;6.226;2023-03-02T01:58:14;102538.88;;;-0.73;100.00
76022;BME280;64718;52.124;6.226;2023-03-02T02:00:42;102540.94;;;-0.61;100.00
76022;BME280;64718;52.124;6.226;2023-03-02T02:03:11;102542.09;;;-0.79;100.00
76022;BME280;64718;52.124;6.226;2023-03-02T02:05:42;102539.56;;;-0.79;100.00
76022;BME280;64718;52.124;6.226;2023-03-02T02:08:11;102547.31;;;-0.76;100.00
76022;BME280;64718;52.124;6.226;2023-03-02T02:10:38;102530.97;;;-0.81;100.00
76022;BME280;64718;52.124;6.226;2023-03-02T02:13:07;102533.88;;;-0.97;100.00
76022;BME280;64718;52.124;6.226;2023-03-02T02:15:34;102545.72;;;-0.99;100.00
76022;BME280;64718;52.124;6.226;2023-03-02T02:18:00;102544.22;;;-1.18;100.00
76022;BME280;64718;52.124;6.226;2023-03-02T02:20:31;102545.63;;;-1.02;100.00
76022;BME280;64718;52.124;6.226;2023-03-02T02:23:09;102547.97;;;-1.08;100.00
76022;BME280;64718;52.124;6.226;2023-03-02T02:26:01;102552.22;;;-1.09;100.00
76022;BME280;64718;52.124;6.226;2023-03-02T02:28:33;102545.22;;;-1.14;100.00
76022;BME280;64718;52.124;6.226;2023-03-02T02:31:05;102541.97;;;-1.10;100.00
76022;BME280;64718;52.124;6.226;2023-03-02T02:33:34;102543.03;;;-1.04;100.00
76022;BME280;64718;52.124;6.226;2023-03-02T02:36:06;102541.28;;;-1.05;100.00
76022;BME280;64718;52.124;6.226;2023-03-02T02:38:33;102537.06;;;-1.04;100.00
76022;BME280;64718;52.124;6.226;2023-03-02T02:41:05;102531.03;;;-1.06;100.00
76022;BME280;64718;52.124;6.226;2023-03-02T02:43:32;102538.94;;;-0.99;100.00
76022;BME280;64718;52.124;6.226;2023-03-02T02:45:59;102538.34;;;-0.90;100.00
76022;BME280;64718;52.124;6.226;2023-03-02T02:48:29;102533.78;;;-0.73;100.00
76022;BME280;64718;52.124;6.226;2023-03-02T02:50:57;102533.00;;;-0.71;100.00
76022;BME280;64718;52.124;6.226;2023-03-02T02:53:28;102533.78;;;-0.73;100.00
76022;BME280;64718;52.124;6.226;2023-03-02T02:55:56;102533.72;;;-0.75;100.00
76022;BME280;64718;52.124;6.226;2023-03-02T02:58:26;102527.78;;;-0.74;100.00
76022;BME280;64718;52.124;6.226;2023-03-02T03:00:54;102525.38;;;-0.69;100.00
76022;BME280;64718;52.124;6.226;2023-03-02T03:03:26;102530.41;;;-0.72;100.00
76022;BME280;64718;52.124;6.226;2023-03-02T03:05:57;102528.44;;;-0.81;100.00
76022;BME280;64718;52.124;6.226;2023-03-02T03:08:50;102536.66;;;-0.89;100.00
76022;BME280;64718;52.124;6.226;2023-03-02T03:11:20;102530.66;;;-0.91;100.00
76022;BME280;64718;52.124;6.226;2023-03-02T03:13:54;102527.47;;;-0.84;100.00
76022;BME280;64718;52.124;6.226;2023-03-02T03:16:22;102528.66;;;-0.73;100.00
76022;BME280;64718;52.124;6.226;2023-03-02T03:18:51;102521.97;;;-0.70;100.00
76022;BME280;64718;52.124;6.226;2023-03-02T03:21:18;102522.63;;;-0.75;100.00
76022;BME280;64718;52.124;6.226;2023-03-02T03:23:45;102523.22;;;-0.84;100.00
76022;BME280;64718;52.124;6.226;2023-03-02T03:26:13;102524.88;;;-0.86;100.00
76022;BME280;64718;52.124;6.226;2023-03-02T03:28:39;102524.91;;;-0.84;100.00
76022;BME280;64718;52.124;6.226;2023-03-02T03:31:07;102521.50;;;-0.85;100.00
76022;BME280;64718;52.124;6.226;2023-03-02T03:33:34;102514.69;;;-0.84;100.00
76022;BME280;64718;52.124;6.226;2023-03-02T03:36:00;102517.84;;;-0.93;100.00
76022;BME280;64718;52.124;6.226;2023-03-02T03:38:27;102517.63;;;-0.99;100.00
76022;BME280;64718;52.124;6.226;2023-03-02T03:40:54;102521.63;;;-1.07;100.00
76022;BME280;64718;52.124;6.226;2023-03-02T03:43:20;102526.06;;;-1.02;100.00
76022;BME280;64718;52.124;6.226;2023-03-02T03:45:47;102518.56;;;-0.97;100.00
76022;BME280;64718;52.124;6.226;2023-03-02T03:48:16;102524.19;;;-0.80;100.00
76022;BME280;64718;52.124;6.226;2023-03-02T03:50:43;102527.66;;;-0.78;100.00
76022;BME280;64718;52.124;6.226;2023-03-02T03:53:10;102518.22;;;-0.81;100.00
76022;BME280;64718;52.124;6.226;2023-03-02T03:55:36;102518.03;;;-0.87;100.00
76022;BME280;64718;52.124;6.226;2023-03-02T03:58:03;102519.66;;;-0.89;100.00
76022;BME280;64718;52.124;6.226;2023-03-02T04:00:29;102520.19;;;-0.99;100.00
76022;BME280;64718;52.124;6.226;2023-03-02T04:02:56;102515.09;;;-0.99;100.00
76022;BME280;64718;52.124;6.226;2023-03-02T04:05:24;102516.53;;;-1.07;100.00
76022;BME280;64718;52.124;6.226;2023-03-02T04:07:51;102515.66;;;-1.08;100.00
76022;BME280;64718;52.124;6.226;2023-03-02T04:10:17;102519.94;;;-1.07;100.00
76022;BME280;64718;52.124;6.226;2023-03-02T04:12:44;102516.53;;;-1.07;100.00
76022;BME280;64718;52.124;6.226;2023-03-02T04:15:13;102517.25;;;-1.11;100.00
76022;BME280;64718;52.124;6.226;2023-03-02T04:17:40;102512.09;;;-1.13;100.00
76022;BME280;64718;52.124;6.226;2023-03-02T04:20:09;102520.44;;;-1.17;100.00
76022;BME280;64718;52.124;6.226;2023-03-02T04:22:42;102513.78;;;-1.13;100.00
76022;BME280;64718;52.124;6.226;2023-03-02T04:25:08;102516.06;;;-1.21;100.00
76022;BME280;64718;52.124;6.226;2023-03-02T04:27:35;102511.72;;;-1.23;100.00
76022;BME280;64718;52.124;6.226;2023-03-02T04:30:02;102514.13;;;-1.28;100.00
76022;BME280;64718;52.124;6.226;2023-03-02T04:32:29;102516.53;;;-1.33;100.00
76022;BME280;64718;52.124;6.226;2023-03-02T04:34:55;102511.13;;;-1.42;100.00
76022;BME280;64718;52.124;6.226;2023-03-02T04:37:22;102524.84;;;-1.38;100.00
76022;BME280;64718;52.124;6.226;2023-03-02T04:39:50;102521.44;;;-1.39;100.00
76022;BME280;64718;52.124;6.226;2023-03-02T04:42:18;102533.16;;;-1.44;100.00
76022;BME280;64718;52.124;6.226;2023-03-02T04:44:44;102522.28;;;-1.38;100.00
76022;BME280;64718;52.124;6.226;2023-03-02T04:47:11;102519.66;;;-1.41;100.00
76022;BME280;64718;52.124;6.226;2023-03-02T04:49:38;102521.06;;;-1.49;100.00
76022;BME280;64718;52.124;6.226;2023-03-02T04:52:05;102531.16;;;-1.52;100.00
76022;BME280;64718;52.124;6.226;2023-03-02T04:54:32;102520.97;;;-1.52;100.00
76022;BME280;64718;52.124;6.226;2023-03-02T04:57:00;102520.97;;;-1.52;100.00
76022;BME280;64718;52.124;6.226;2023-03-02T04:59:27;102523.38;;;-1.57;100.00
76022;BME280;64718;52.124;6.226;2023-03-02T05:01:56;102521.53;;;-1.61;100.00
76022;BME280;64718;52.124;6.226;2023-03-02T05:04:24;102529.84;;;-1.67;100.00
76022;BME280;64718;52.124;6.226;2023-03-02T05:06:51;102524.63;;;-1.70;100.00
76022;BME280;64718;52.124;6.226;2023-03-02T05:09:17;102521.69;;;-1.80;100.00
76022;BME280;64718;52.124;6.226;2023-03-02T05:11:44;102516.72;;;-1.76;100.00
76022;BME280;64718;52.124;6.226;2023-03-02T05:14:12;102520.97;;;-1.76;100.00
76022;BME280;64718;52.124;6.226;2023-03-02T05:16:40;102513.25;;;-1.78;100.00
76022;BME280;64718;52.124;6.226;2023-03-02T05:19:09;102523.34;;;-1.81;100.00
76022;BME280;64718;52.124;6.226;2023-03-02T05:21:36;102528.34;;;-1.84;100.00
76022;BME280;64718;52.124;6.226;2023-03-02T05:24:03;102526.63;;;-1.85;100.00
76022;BME280;64718;52.124;6.226;2023-03-02T05:26:30;102527.69;;;-1.78;100.00
76022;BME280;64718;52.124;6.226;2023-03-02T05:28:56;102526.72;;;-1.82;100.00
76022;BME280;64718;52.124;6.226;2023-03-02T05:31:28;102523.41;;;-1.79;100.00
76022;BME280;64718;52.124;6.226;2023-03-02T05:33:55;102533.63;;;-1.79;100.00
76022;BME280;64718;52.124;6.226;2023-03-02T05:36:22;102524.22;;;-1.80;100.00
76022;BME280;64718;52.124;6.226;2023-03-02T05:38:48;102520.81;;;-1.81;100.00
76022;BME280;64718;52.124;6.226;2023-03-02T05:41:15;102520.88;;;-1.79;100.00
76022;BME280;64718;52.124;6.226;2023-03-02T05:43:42;102522.50;;;-1.81;100.00
76022;BME280;64718;52.124;6.226;2023-03-02T05:46:08;102522.50;;;-1.81;100.00
76022;BME280;64718;52.124;6.226;2023-03-02T05:48:36;102526.22;;;-1.73;100.00
76022;BME280;64718;52.124;6.226;2023-03-02T05:51:03;102525.44;;;-1.71;100.00
76022;BME280;64718;52.124;6.226;2023-03-02T05:53:30;102525.25;;;-1.75;100.00
76022;BME280;64718;52.124;6.226;2023-03-02T05:55:56;102525.84;;;-1.82;100.00
76022;BME280;64718;52.124;6.226;2023-03-02T05:58:23;102527.44;;;-1.86;100.00
76022;BME280;64718;52.124;6.226;2023-03-02T06:00:50;102530.78;;;-1.87;100.00
76022;BME280;64718;52.124;6.226;2023-03-02T06:03:17;102525.59;;;-1.90;100.00
76022;BME280;64718;52.124;6.226;2023-03-02T06:05:45;102523.81;;;-1.93;100.00
76022;BME280;64718;52.124;6.226;2023-03-02T06:08:15;102524.63;;;-1.94;100.00
76022;BME280;64718;52.124;6.226;2023-03-02T06:10:41;102519.25;;;-2.01;100.00
76022;BME280;64718;52.124;6.226;2023-03-02T06:13:08;102525.16;;;-2.02;100.00
76022;BME280;64718;52.124;6.226;2023-03-02T06:15:34;102525.22;;;-2.01;100.00
76022;BME280;64718;52.124;6.226;2023-03-02T06:18:01;102520.75;;;-2.06;100.00
76022;BME280;64718;52.124;6.226;2023-03-02T06:20:27;102524.34;;;-2.01;100.00
76022;BME280;64718;52.124;6.226;2023-03-02T06:22:55;102525.09;;;-2.04;100.00
76022;BME280;64718;52.124;6.226;2023-03-02T06:25:23;102526.84;;;-2.03;100.00
76022;BME280;64718;52.124;6.226;2023-03-02T06:27:50;102536.88;;;-2.07;100.00
76022;BME280;64718;52.124;6.226;2023-03-02T06:30:19;102524.00;;;-2.10;100.00
76022;BME280;64718;52.124;6.226;2023-03-02T06:32:46;102528.41;;;-2.06;100.00
76022;BME280;64718;52.124;6.226;2023-03-02T06:35:13;102532.75;;;-2.04;100.00
76022;BME280;64718;52.124;6.226;2023-03-02T06:37:40;102527.75;;;-2.01;100.00
76022;BME280;64718;52.124;6.226;2023-03-02T06:40:09;102532.25;;;-1.94;100.00
76022;BME280;64718;52.124;6.226;2023-03-02T06:42:38;102527.28;;;-1.91;100.00
76022;BME280;64718;52.124;6.226;2023-03-02T06:45:06;102534.25;;;-1.85;100.00
76022;BME280;64718;52.124;6.226;2023-03-02T06:47:33;102541.16;;;-1.82;100.00
76022;BME280;64718;52.124;6.226;2023-03-02T06:49:59;102537.94;;;-1.77;100.00
76022;BME280;64718;52.124;6.226;2023-03-02T06:52:26;102551.72;;;-1.73;100.00
76022;BME280;64718;52.124;6.226;2023-03-02T06:54:53;102549.44;;;-1.66;100.00
76022;BME280;64718;52.124;6.226;2023-03-02T06:57:21;102548.81;;;-1.58;100.00
76022;BME280;64718;52.124;6.226;2023-03-02T06:59:47;102554.03;;;-1.55;100.00
76022;BME280;64718;52.124;6.226;2023-03-02T07:02:14;102552.72;;;-1.44;100.00
76022;BME280;64718;52.124;6.226;2023-03-02T07:04:40;102551.59;;;-1.27;100.00
76022;BME280;64718;52.124;6.226;2023-03-02T07:07:07;102549.09;;;-1.25;100.00
76022;BME280;64718;52.124;6.226;2023-03-02T07:09:34;102550.97;;;-1.20;100.00
76022;BME280;64718;52.124;6.226;2023-03-02T07:12:01;102546.41;;;-1.05;100.00
76022;BME280;64718;52.124;6.226;2023-03-02T07:14:29;102548.19;;;-1.02;100.00
76022;BME280;64718;52.124;6.226;2023-03-02T07:16:55;102544.38;;;-0.88;100.00
76022;BME280;64718;52.124;6.226;2023-03-02T07:19:24;102542.50;;;-0.93;100.00
76022;BME280;64718;52.124;6.226;2023-03-02T07:21:50;102545.97;;;-0.91;100.00
76022;BME280;64718;52.124;6.226;2023-03-02T07:24:18;102550.00;;;-0.71;100.00
76022;BME280;64718;52.124;6.226;2023-03-02T07:26:46;102540.66;;;-0.71;100.00
76022;BME280;64718;52.124;6.226;2023-03-02T07:29:13;102541.63;;;-0.67;100.00
76022;BME280;64718;52.124;6.226;2023-03-02T07:31:41;102540.88;;;-0.63;100.00
76022;BME280;64718;52.124;6.226;2023-03-02T07:34:08;102551.13;;;-0.63;100.00
76022;BME280;64718;52.124;6.226;2023-03-02T07:36:35;102553.03;;;-0.57;100.00
76022;BME280;64718;52.124;6.226;2023-03-02T07:39:02;102550.16;;;-0.40;100.00
76022;BME280;64718;52.124;6.226;2023-03-02T07:41:29;102547.59;;;-0.40;100.00
76022;BME280;64718;52.124;6.226;2023-03-02T07:43:56;102550.09;;;-0.41;100.00
76022;BME280;64718;52.124;6.226;2023-03-02T07:46:22;102543.69;;;-0.27;100.00
76022;BME280;64718;52.124;6.226;2023-03-02T07:48:50;102540.53;;;-0.18;100.00
76022;BME280;64718;52.124;6.226;2023-03-02T07:51:18;102544.00;;;-0.16;100.00
76022;BME280;64718;52.124;6.226;2023-03-02T07:53:44;102551.31;;;0.00;100.00
76022;BME280;64718;52.124;6.226;2023-03-02T07:56:11;102544.19;;;0.51;100.00
76022;BME280;64718;52.124;6.226;2023-03-02T07:58:38;102544.34;;;0.57;100.00
76022;BME280;64718;52.124;6.226;2023-03-02T08:01:04;102557.09;;;0.56;100.00
76022;BME280;64718;52.124;6.226;2023-03-02T08:03:31;102547.25;;;0.38;100.00
76022;BME280;64718;52.124;6.226;2023-03-02T08:06:03;102548.03;;;0.36;100.00
76022;BME280;64718;52.124;6.226;2023-03-02T08:08:30;102548.00;;;0.34;100.00
76022;BME280;64718;52.124;6.226;2023-03-02T08:11:03;102546.38;;;0.38;100.00
76022;BME280;64718;52.124;6.226;2023-03-02T08:13:29;102548.22;;;0.43;100.00
76022;BME280;64718;52.124;6.226;2023-03-02T08:15:58;102548.44;;;0.51;100.00
76022;BME280;64718;52.124;6.226;2023-03-02T08:18:25;102553.00;;;0.61;100.00
76022;BME280;64718;52.124;6.226;2023-03-02T08:20:52;102550.72;;;0.72;100.00
76022;BME280;64718;52.124;6.226;2023-03-02T08:23:20;102554.09;;;0.71;100.00
76022;BME280;64718;52.124;6.226;2023-03-02T08:25:47;102556.28;;;0.90;100.00
76022;BME280;64718;52.124;6.226;2023-03-02T08:28:13;102557.97;;;0.89;100.00
76022;BME280;64718;52.124;6.226;2023-03-02T08:30:40;102553.13;;;1.00;100.00
76022;BME280;64718;52.124;6.226;2023-03-02T08:33:06;102559.41;;;0.78;100.00
76022;BME280;64718;52.124;6.226;2023-03-02T08:35:33;102560.44;;;0.85;100.00
76022;BME280;64718;52.124;6.226;2023-03-02T08:37:59;102558.09;;;0.94;100.00
76022;BME280;64718;52.124;6.226;2023-03-02T08:40:27;102555.00;;;1.07;100.00
76022;BME280;64718;52.124;6.226;2023-03-02T08:42:54;102555.97;;;1.12;100.00
76022;BME280;64718;52.124;6.226;2023-03-02T08:45:21;102556.53;;;1.35;100.00
76022;BME280;64718;52.124;6.226;2023-03-02T08:47:48;102550.91;;;1.51;100.00
76022;BME280;64718;52.124;6.226;2023-03-02T08:50:15;102549.47;;;1.64;100.00
76022;BME280;64718;52.124;6.226;2023-03-02T08:52:41;102550.13;;;1.54;100.00
76022;BME280;64718;52.124;6.226;2023-03-02T08:55:09;102556.25;;;1.61;100.00
76022;BME280;64718;52.124;6.226;2023-03-02T08:57:37;102550.84;;;1.87;100.00
76022;BME280;64718;52.124;6.226;2023-03-02T09:00:06;102548.44;;;1.95;100.00
76022;BME280;64718;52.124;6.226;2023-03-02T09:02:38;102550.34;;;2.04;100.00
76022;BME280;64718;52.124;6.226;2023-03-02T09:05:05;102540.31;;;2.16;100.00
76022;BME280;64718;52.124;6.226;2023-03-02T09:07:32;102536.75;;;3.03;100.00
76022;BME280;64718;52.124;6.226;2023-03-02T09:09:58;102543.22;;;3.35;100.00
76022;BME280;64718;52.124;6.226;2023-03-02T09:12:25;102527.84;;;3.40;100.00
76022;BME280;64718;52.124;6.226;2023-03-02T09:14:53;102525.38;;;3.46;100.00
76022;BME280;64718;52.124;6.226;2023-03-02T09:17:19;102530.69;;;3.57;100.00
76022;BME280;64718;52.124;6.226;2023-03-02T09:19:46;102534.84;;;3.47;100.00
76022;BME280;64718;52.124;6.226;2023-03-02T09:22:13;102526.72;;;3.20;100.00
76022;BME280;64718;52.124;6.226;2023-03-02T09:24:39;102530.97;;;3.17;100.00
76022;BME280;64718;52.124;6.226;2023-03-02T09:27:06;102536.94;;;3.16;100.00
76022;BME280;64718;52.124;6.226;2023-03-02T09:29:32;102528.13;;;3.01;100.00
76022;BME280;64718;52.124;6.226;2023-03-02T09:32:00;102527.31;;;3.03;100.00
76022;BME280;64718;52.124;6.226;2023-03-02T09:34:27;102526.63;;;3.13;100.00
76022;BME280;64718;52.124;6.226;2023-03-02T09:36:53;102518.28;;;3.30;100.00
76022;BME280;64718;52.124;6.226;2023-03-02T09:39:20;102519.94;;;3.26;100.00
76022;BME280;64718;52.124;6.226;2023-03-02T09:42:26;102522.75;;;3.43;100.00
76022;BME280;64718;52.124;6.226;2023-03-02T09:45:05;102523.00;;;3.60;100.00
76022;BME280;64718;52.124;6.226;2023-03-02T09:47:43;102521.47;;;3.74;100.00
76022;BME280;64718;52.124;6.226;2023-03-02T09:50:25;102518.13;;;3.81;100.00
76022;BME280;64718;52.124;6.226;2023-03-02T09:53:06;102524.31;;;3.97;100.00
76022;BME280;64718;52.124;6.226;2023-03-02T09:55:38;102524.53;;;4.12;99.94
76022;BME280;64718;52.124;6.226;2023-03-02T09:58:05;102519.34;;;4.09;99.36
76022;BME280;64718;52.124;6.226;2023-03-02T10:00:34;102515.28;;;4.29;98.35
76022;BME280;64718;52.124;6.226;2023-03-02T10:03:04;102522.94;;;4.25;98.19
76022;BME280;64718;52.124;6.226;2023-03-02T10:05:37;102517.88;;;4.32;98.29
76022;BME280;64718;52.124;6.226;2023-03-02T10:08:04;102521.38;;;4.39;97.42
76022;BME280;64718;52.124;6.226;2023-03-02T10:10:36;102525.75;;;4.46;96.46
76022;BME280;64718;52.124;6.226;2023-03-02T10:13:17;102519.09;;;4.66;97.13
76022;BME280;64718;52.124;6.226;2023-03-02T10:15:55;102525.03;;;4.62;96.18
76022;BME280;64718;52.124;6.226;2023-03-02T10:18:33;102519.84;;;4.59;95.04
76022;BME280;64718;52.124;6.226;2023-03-02T10:21:05;102525.16;;;4.73;96.12
76022;BME280;64718;52.124;6.226;2023-03-02T10:23:40;102523.59;;;4.92;95.14
76022;BME280;64718;52.124;6.226;2023-03-02T10:26:15;102514.97;;;4.88;93.73
76022;BME280;64718;52.124;6.226;2023-03-02T10:28:47;102514.13;;;4.91;94.11
76022;BME280;64718;52.124;6.226;2023-03-02T10:31:22;102511.66;;;5.04;93.27
76022;BME280;64718;52.124;6.226;2023-03-02T10:33:51;102509.13;;;5.12;93.08
76022;BME280;64718;52.124;6.226;2023-03-02T10:36:22;102509.22;;;5.23;92.93
76022;BME280;64718;52.124;6.226;2023-03-02T10:38:49;102499.81;;;5.29;91.13
76022;BME280;64718;52.124;6.226;2023-03-02T10:41:20;102500.72;;;5.39;91.82
76022;BME280;64718;52.124;6.226;2023-03-02T10:43:50;102496.41;;;5.38;90.95
76022;BME280;64718;52.124;6.226;2023-03-02T10:46:17;102505.09;;;5.55;92.10
76022;BME280;64718;52.124;6.226;2023-03-02T10:48:48;102505.13;;;5.64;91.02
76022;BME280;64718;52.124;6.226;2023-03-02T10:51:23;102504.41;;;5.87;89.68
76022;BME280;64718;52.124;6.226;2023-03-02T10:54:00;102510.47;;;5.95;89.29
76022;BME280;64718;52.124;6.226;2023-03-02T10:56:28;102502.78;;;6.13;88.84
76022;BME280;64718;52.124;6.226;2023-03-02T10:58:55;102509.69;;;6.16;86.26
76022;BME280;64718;52.124;6.226;2023-03-02T11:01:28;102509.69;;;6.25;86.78
76022;BME280;64718;52.124;6.226;2023-03-02T11:03:55;102495.84;;;5.98;87.00
76022;BME280;64718;52.124;6.226;2023-03-02T11:06:24;102506.22;;;6.09;86.98
76022;BME280;64718;52.124;6.226;2023-03-02T11:08:58;102502.78;;;6.18;86.20
76022;BME280;64718;52.124;6.226;2023-03-02T11:11:25;102499.41;;;6.37;87.05
76022;BME280;64718;52.124;6.226;2023-03-02T11:13:52;102496.81;;;6.39;84.58
76022;BME280;64718;52.124;6.226;2023-03-02T11:16:23;102495.09;;;6.45;84.65
76022;BME280;64718;52.124;6.226;2023-03-02T11:18:53;102487.38;;;6.59;84.89
76022;BME280;64718;52.124;6.226;2023-03-02T11:21:24;102487.38;;;6.68;84.36
76022;BME280;64718;52.124;6.226;2023-03-02T11:23:59;102489.94;;;6.68;84.98
76022;BME280;64718;52.124;6.226;2023-03-02T11:26:32;102481.31;;;6.77;85.42
76022;BME280;64718;52.124;6.226;2023-03-02T11:29:02;102483.03;;;6.87;82.97
76022;BME280;64718;52.124;6.226;2023-03-02T11:31:34;102478.72;;;6.90;82.25
76022;BME280;64718;52.124;6.226;2023-03-02T11:34:25;102481.31;;;6.81;82.17
76022;BME280;64718;52.124;6.226;2023-03-02T11:37:05;102468.38;;;6.93;81.27
76022;BME280;64718;52.124;6.226;2023-03-02T11:39:51;102470.06;;;7.25;81.41
76022;BME280;64718;52.124;6.226;2023-03-02T11:42:25;102469.16;;;7.41;82.67
76022;BME280;64718;52.124;6.226;2023-03-02T11:44:53;102467.44;;;7.40;83.54
76022;BME280;64718;52.124;6.226;2023-03-02T11:47:21;102475.22;;;7.33;81.41
76022;BME280;64718;52.124;6.226;2023-03-02T11:49:52;102468.38;;;7.16;81.79
76022;BME280;64718;52.124;6.226;2023-03-02T11:52:23;102460.53;;;7.36;80.35
76022;BME280;64718;52.124;6.226;2023-03-02T11:54:53;102459.66;;;7.43;81.61
76022;BME280;64718;52.124;6.226;2023-03-02T11:57:25;102453.63;;;7.41;81.69
76022;BME280;64718;52.124;6.226;2023-03-02T11:59:53;102451.00;;;7.49;82.20
76022;BME280;64718;52.124;6.226;2023-03-02T12:02:22;102444.09;;;7.51;81.89
76022;BME280;64718;52.124;6.226;2023-03-02T12:05:01;102444.09;;;7.51;81.77
76022;BME280;64718;52.124;6.226;2023-03-02T12:07:29;102439.78;;;7.54;80.45
76022;BME280;64718;52.124;6.226;2023-03-02T12:10:01;102434.56;;;7.65;80.84
76022;BME280;64718;52.124;6.226;2023-03-02T12:12:41;102430.22;;;7.72;79.10
76022;BME280;64718;52.124;6.226;2023-03-02T12:15:42;102432.81;;;7.67;81.46
76022;BME280;64718;52.124;6.226;2023-03-02T12:18:28;102429.22;;;7.91;81.31
76022;BME280;64718;52.124;6.226;2023-03-02T12:21:02;102424.97;;;7.84;78.12
76022;BME280;64718;52.124;6.226;2023-03-02T12:23:32;102428.41;;;7.86;78.92
76022;BME280;64718;52.124;6.226;2023-03-02T12:26:07;102410.28;;;7.83;76.33
76022;BME280;64718;52.124;6.226;2023-03-02T12:28:36;102408.41;;;8.06;79.16
76022;BME280;64718;52.124;6.226;2023-03-02T12:31:06;102403.22;;;8.08;77.12
76022;BME280;64718;52.124;6.226;2023-03-02T12:33:41;102399.75;;;8.09;75.20
76022;BME280;64718;52.124;6.226;2023-03-02T12:36:13;102398.03;;;8.06;75.76
76022;BME280;64718;52.124;6.226;2023-03-02T12:38:51;102394.56;;;8.12;75.83
76022;BME280;64718;52.124;6.226;2023-03-02T12:41:50;102388.38;;;8.34;76.94
76022;BME280;64718;52.124;6.226;2023-03-02T12:44:28;102380.63;;;8.25;73.82
76022;BME280;64718;52.124;6.226;2023-03-02T12:46:59;102372.88;;;8.23;74.06
76022;BME280;64718;52.124;6.226;2023-03-02T12:49:41;102371.06;;;8.36;75.10
76022;BME280;64718;52.124;6.226;2023-03-02T12:52:26;102374.53;;;8.31;76.31
76022;BME280;64718;52.124;6.226;2023-03-02T12:55:03;102369.25;;;8.47;76.38
76022;BME280;64718;52.124;6.226;2023-03-02T12:57:31;102368.28;;;8.57;77.97